createdAt,value
2023-05-14T21:06:07.301Z,94.12
2023-05-14T21:07:07.354Z,86.12
2023-05-14T21:08:07.329Z,86.01
2023-05-14T21:09:07.333Z,86.12
2023-05-14T21:10:07.343Z,85.66
2023-05-14T21:11:07.363Z,85.43
2023-05-14T21:12:07.384Z,96.94
2023-05-14T21:13:07.412Z,94.88
2023-05-14T21:14:07.406Z,94.7
2023-05-14T21:15:07.419Z,94.98
2023-05-14T21:16:07.441Z,95.14
2023-05-14T21:17:07.425Z,94.93
2023-05-14T21:18:07.463Z,94.57
2023-05-14T21:19:07.458Z,94.72
2023-05-14T21:20:07.488Z,94.51
2023-05-14T21:21:07.458Z,94.42
2023-05-14T21:22:07.471Z,94.26
2023-05-14T21:23:07.489Z,94.46
2023-05-14T21:24:07.501Z,95.47
2023-05-14T21:25:07.519Z,95.72
2023-05-14T21:26:07.540Z,95.39
2023-05-14T21:27:07.559Z,95.94
2023-05-14T21:28:07.571Z,96.15
2023-05-14T21:29:07.576Z,96.09
2023-05-14T21:30:07.577Z,96.1
2023-05-14T21:31:07.611Z,95.64
2023-05-14T21:32:07.660Z,95.56
2023-05-14T21:33:07.716Z,95.77
2023-05-14T21:34:07.668Z,96.7
2023-05-14T21:35:07.635Z,96.68
2023-05-14T21:36:07.641Z,96.68
2023-05-14T21:37:07.662Z,96.2
2023-05-14T21:38:07.697Z,96.11
2023-05-14T21:39:07.743Z,96.5
2023-05-14T21:40:07.689Z,96.68
2023-05-14T21:41:07.687Z,96.92
2023-05-14T21:42:07.697Z,97.09
2023-05-14T21:43:07.775Z,96.93
2023-05-14T21:44:07.742Z,97.28
2023-05-14T21:45:07.706Z,97.12
2023-05-14T21:46:07.712Z,97.29
2023-05-14T21:47:07.719Z,97.58
2023-05-14T21:48:07.881Z,98.7
2023-05-14T21:49:07.804Z,98.53
2023-05-14T21:50:07.817Z,98.99
2023-05-14T21:51:07.742Z,98.61
2023-05-14T21:52:07.747Z,98.65
2023-05-14T21:53:07.842Z,98.99
2023-05-14T21:54:07.831Z,99.22
2023-05-14T21:55:07.837Z,98.99
2023-05-14T21:56:07.792Z,98.6
2023-05-14T21:57:07.819Z,98.73
2023-05-14T21:58:07.789Z,98.81
2023-05-14T21:59:07.850Z,98.71
2023-05-14T22:00:07.918Z,98.71
2023-05-14T22:01:07.912Z,98.84
2023-05-14T22:02:08.274Z,98.46
2023-05-14T22:03:08.064Z,98.82
2023-05-14T22:04:07.990Z,98.59
2023-05-14T22:05:07.921Z,98.57
2023-05-14T22:06:07.953Z,98.62
2023-05-14T22:07:07.964Z,98.68
2023-05-14T22:08:07.987Z,98.19
2023-05-14T22:09:07.980Z,98.44
2023-05-14T22:10:08.002Z,98.25
2023-05-14T22:11:08.031Z,98.47
2023-05-14T22:12:08.026Z,97.93
2023-05-14T22:13:08.042Z,98.37
2023-05-14T22:14:08.066Z,97.92
2023-05-14T22:15:08.077Z,97.76
2023-05-14T22:16:12.539Z,97.68
2023-05-14T22:17:07.124Z,97.52
2023-05-14T22:18:07.162Z,97.68
2023-05-14T22:19:07.161Z,97.63
2023-05-14T22:20:07.169Z,97.56
2023-05-14T22:21:07.242Z,98.03
2023-05-14T22:22:07.203Z,98.31
2023-05-14T22:23:07.221Z,97.83
2023-05-14T22:24:07.250Z,97.59
2023-05-14T22:25:07.260Z,97.59
2023-05-14T22:26:07.277Z,97.46
2023-05-14T22:27:07.285Z,97.43
2023-05-14T22:28:07.319Z,97.15
2023-05-14T22:29:07.332Z,96.75
2023-05-14T22:30:07.341Z,96.75
2023-05-14T22:31:07.380Z,96.64
2023-05-14T22:32:07.362Z,96.96
2023-05-14T22:33:07.502Z,96.44
2023-05-14T22:34:07.417Z,96.04
2023-05-14T22:35:07.444Z,96.02
2023-05-14T22:36:07.484Z,96.32
2023-05-14T22:37:07.489Z,96.04
2023-05-14T22:38:07.516Z,96.14
2023-05-14T22:39:07.545Z,96.19
2023-05-14T22:40:07.579Z,95.81
2023-05-14T22:41:07.598Z,95.34
2023-05-14T22:42:07.628Z,95.45
2023-05-14T22:43:07.654Z,95.31
2023-05-14T22:44:07.664Z,95.74
2023-05-14T22:45:07.681Z,94.98
2023-05-14T22:46:07.804Z,95.29
2023-05-14T22:47:07.737Z,95.32
2023-05-14T22:48:07.825Z,95.3
2023-05-14T22:49:07.755Z,95.52
2023-05-14T22:50:07.789Z,94.95
2023-05-14T22:51:07.782Z,95.13
2023-05-14T22:52:07.820Z,94.48
2023-05-14T22:53:07.811Z,94.59
2023-05-14T22:54:07.820Z,94.29
2023-05-14T22:55:07.823Z,93.95
2023-05-14T22:56:07.853Z,94.03
2023-05-14T22:57:07.965Z,93.77
2023-05-14T22:58:07.904Z,94.04
2023-05-14T22:59:08.038Z,94.26
2023-05-14T23:00:08.019Z,94.26
2023-05-14T23:01:08.028Z,93.67
2023-05-14T23:02:08.182Z,93.67
2023-05-14T23:03:08.087Z,93.9
2023-05-14T23:04:08.096Z,93.64
2023-05-14T23:05:07.093Z,93.48
2023-05-14T23:06:07.118Z,93.44
2023-05-14T23:07:07.135Z,93.09
2023-05-14T23:08:07.160Z,92.73
2023-05-14T23:09:07.185Z,92.5
2023-05-14T23:10:07.216Z,93
2023-05-14T23:11:07.228Z,93.65
2023-05-14T23:12:07.260Z,92.93
2023-05-14T23:13:07.296Z,92.59
2023-05-14T23:14:07.292Z,92.52
2023-05-14T23:15:07.324Z,92.23
2023-05-14T23:16:07.339Z,91.93
2023-05-14T23:17:07.358Z,91.84
2023-05-14T23:18:07.443Z,92.27
2023-05-14T23:19:07.612Z,91.78
2023-05-14T23:20:07.397Z,91.94
2023-05-14T23:21:07.447Z,91.55
2023-05-14T23:22:07.445Z,91.02
2023-05-14T23:23:07.473Z,91.48
2023-05-14T23:24:07.495Z,91.48
2023-05-14T23:25:07.520Z,91.48
2023-05-14T23:26:07.544Z,91.45
2023-05-14T23:27:07.598Z,91.79
2023-05-14T23:28:07.600Z,91.87
2023-05-14T23:29:07.626Z,91.42
2023-05-14T23:30:07.660Z,91.1
2023-05-14T23:31:07.678Z,90.94
2023-05-14T23:32:07.840Z,90.97
2023-05-14T23:33:07.775Z,90.88
2023-05-14T23:34:07.755Z,90.75
2023-05-14T23:35:07.787Z,90.67
2023-05-14T23:36:07.817Z,90.65
2023-05-14T23:37:07.823Z,90.2
2023-05-14T23:38:07.860Z,89.35
2023-05-14T23:39:07.898Z,89.96
2023-05-14T23:40:07.899Z,89.8
2023-05-14T23:41:07.931Z,89.8
2023-05-14T23:42:07.950Z,89.91
2023-05-14T23:43:07.977Z,89.9
2023-05-14T23:44:07.978Z,89.55
2023-05-14T23:45:08.002Z,89.58
2023-05-14T23:46:08.056Z,89.47
2023-05-14T23:47:08.031Z,89.59
2023-05-14T23:48:08.070Z,89.09
2023-05-14T23:49:08.056Z,89.62
2023-05-14T23:50:08.056Z,89.19
2023-05-14T23:51:08.089Z,89.54
2023-05-14T23:52:07.115Z,89.86
2023-05-14T23:53:07.147Z,90.22
2023-05-14T23:54:07.174Z,89.96
2023-05-14T23:55:07.190Z,90.09
2023-05-14T23:56:07.205Z,90.03
2023-05-14T23:57:07.233Z,90.09
2023-05-14T23:58:07.257Z,89.47
2023-05-14T23:59:07.277Z,89.32
